Ischia Jet — IOBI — position and weather

sailwx.info

Track history (hours):
 
Tides and Currents Weather Stations Pressure Air Temp Water Temp Dewpoint Dewpoint Depression Visibility Wind Speed Wind Dir Waves Ship Positions

Ischia Jet

Last reported at 2017-Aug-18 16:29 UTC. Time now 2017-Aug-18 20:22 UTC.
Position N 40°40' E 014°24'.

Length 42 m; draft 1.2 m.

Type: Passenger vessel. MMSI: 247048700.

Date/timePositionNaut miles runAvg speedWind from/ knotsBaromVisibWave heightAir tempDewpointWater temp
2017-Aug-18 16:29N 40°40' E 014°24'9 9.4
2017-Aug-18 15:34N 40°34' E 014°16'124.1
2017-Aug-18 15:30N 40°34' E 014°18'1422.4
2017-Aug-18 14:52N 40°38' E 014°36'1415.8
2017-Aug-18 14:01N 40°34' E 014°19'3 4.6
2017-Aug-18 13:26N 40°35' E 014°16'1024.5
2017-Aug-18 13:00N 40°46' E 014°17'5 9.4
2017-Aug-18 12:30N 40°50' E 014°15'1020.6
2017-Aug-18 12:00N 40°40' E 014°16'713.0
2017-Aug-18 11:30N 40°33' E 014°14'0 0.0
2017-Aug-18 11:00N 40°33' E 014°14'0 0.0
2017-Aug-18 09:32N 40°33' E 014°14'0 5.3
2017-Aug-18 09:28N 40°34' E 014°15'1022.0
2017-Aug-18 09:00N 40°36' E 014°28'1 1.3
2017-Aug-18 08:03N 40°35' E 014°28'124.8
2017-Aug-18 08:01N 40°35' E 014°27'811.4
2017-Aug-18 07:19N 40°34' E 014°16'619.1
2017-Aug-18 07:00N 40°38' E 014°23'3 0.2
2017-Aug-17 14:51N 40°40' E 014°24'3 8.1
2017-Aug-17 14:31N 40°38' E 014°21'7 2.4
2017-Aug-17 11:27N 40°33' E 014°14'0 0.0
2017-Aug-17 11:00N 40°33' E 014°14'714.0
2017-Aug-17 10:31N 40°40' E 014°17'1020.1
2017-Aug-17 10:00N 40°50' E 014°15'1 1.0
2017-Aug-17 09:25N 40°50' E 014°16'922.1
2017-Aug-17 09:00N 40°41' E 014°16'7 7.1
2017-Aug-17 08:03N 40°34' E 014°16'122.0
2017-Aug-17 08:00N 40°35' E 014°17'5 9.7
2017-Aug-17 07:30N 40°38' E 014°23'4 5.1
2017-Aug-17 06:46N 40°36' E 014°18'414.8
2017-Aug-17 06:30N 40°38' E 014°23'3 0.2
2017-Aug-16 16:36N 40°40' E 014°24'223.7
2017-Aug-16 16:31N 40°38' E 014°23'7 7.2
2017-Aug-16 15:36N 40°34' E 014°16'223.9
2017-Aug-16 15:30N 40°34' E 014°20'8 8.0
2017-Aug-16 14:28N 40°38' E 014°29'714.6
2017-Aug-16 13:59N 40°34' E 014°21'4 7.9
2017-Aug-16 13:26N 40°35' E 014°16'1513.9
2017-Aug-16 12:22N 40°50' E 014°15'0 0.0
2017-Aug-16 12:00N 40°50' E 014°15'5 7.0
2017-Aug-16 11:15N 40°45' E 014°18'623.8
2017-Aug-16 11:00N 40°39' E 014°17'7 4.1
2017-Aug-16 09:23N 40°34' E 014°22'4 3.4
2017-Aug-16 08:05N 40°35' E 014°28'224.2
2017-Aug-16 08:00N 40°34' E 014°25'815.4
2017-Aug-16 07:28N 40°33' E 014°14'816.6
2017-Aug-16 07:00N 40°38' E 014°23'3 0.2
2017-Aug-15 14:54N 40°41' E 014°25'4 9.9
2017-Aug-15 14:31N 40°38' E 014°21'7 2.9
2017-Aug-15 12:09N 40°33' E 014°14'0 0.0
2017-Aug-15 12:00N 40°33' E 014°14'2 1.8
2017-Aug-15 10:45N 40°35' E 014°16'623.9
2017-Aug-15 10:31N 40°41' E 014°17'5 4.0
2017-Aug-15 09:11N 40°46' E 014°18'425.0
2017-Aug-15 09:00N 40°42' E 014°17'6 5.5
2017-Aug-15 07:55N 40°36' E 014°18'4 9.9
2017-Aug-15 07:31N 40°38' E 014°23'4 5.5
2017-Aug-15 06:45N 40°36' E 014°18'416.8
2017-Aug-15 06:30N 40°38' E 014°23'4 0.3
2017-Aug-14 16:51N 40°41' E 014°26'411.1
2017-Aug-14 16:31N 40°38' E 014°23'4 3.9
2017-Aug-14 15:29N 40°34' E 014°25'3 2.8
2017-Aug-14 14:16N 40°37' E 014°29'1011.4
2017-Aug-14 13:25N 40°35' E 014°16'1024.1
2017-Aug-14 13:00N 40°45' E 014°17'1 0.4
2017-Aug-14 11:15N 40°46' E 014°18'623.7
2017-Aug-14 11:00N 40°40' E 014°17'7 4.0
2017-Aug-14 09:20N 40°34' E 014°22'5 3.7
2017-Aug-14 08:07N 40°35' E 014°28'324.9
2017-Aug-14 07:59N 40°34' E 014°23'5 6.8
2017-Aug-14 07:16N 40°36' E 014°17'417.0
2017-Aug-14 07:00N 40°38' E 014°23'2 0.2
2017-Aug-13 14:51N 40°40' E 014°24'2 7.2
2017-Aug-13 14:30N 40°38' E 014°22'6 1.6
2017-Aug-13 10:42N 40°35' E 014°15'422.4
2017-Aug-13 10:30N 40°40' E 014°15'7 5.3
2017-Aug-13 09:13N 40°46' E 014°17'524.3
2017-Aug-13 09:00N 40°41' E 014°17'5 5.5
2017-Aug-13 08:02N 40°36' E 014°17'123.2
2017-Aug-13 08:00N 40°36' E 014°18'3 6.1
2017-Aug-13 07:31N 40°38' E 014°21'2 0.2
2017-Aug-12 16:37N 40°39' E 014°24'2 7.1
2017-Aug-12 16:22N 40°38' E 014°23'13 2.8
2017-Aug-12 11:34N 40°50' E 014°16'115.8
2017-Aug-12 11:30N 40°49' E 014°17'1122.6
2017-Aug-12 11:00N 40°38' E 014°18'1 0.2
2017-Aug-12 07:15N 40°38' E 014°18'312.6
2017-Aug-12 06:58N 40°38' E 014°23'2 0.1
2017-Aug-11 14:37N 40°39' E 014°24'217.7
2017-Aug-11 14:30N 40°38' E 014°23'4 0.8
2017-Aug-11 08:55N 40°38' E 014°17'1 1.7
2017-Aug-11 08:10N 40°38' E 014°19'317.2
2017-Aug-11 08:00N 40°38' E 014°22'3 2.4
2017-Aug-11 06:46N 40°38' E 014°18'312.5
2017-Aug-11 06:30N 40°38' E 014°23'2 0.1
2017-Aug-10 16:32N 40°40' E 014°24'125.0
2017-Aug-10 16:30N 40°39' E 014°23'5 2.1
2017-Aug-10 14:11N 40°35' E 014°25'424.6
2017-Aug-10 14:00N 40°34' E 014°20'4 2.8
2017-Aug-10 12:38N 40°38' E 014°20'216.9
2017-Aug-10 12:31N 40°38' E 014°23'8 4.4
2017-Aug-10 10:46N 40°33' E 014°14'0 0.0
2017-Aug-10 10:30N 40°33' E 014°14'6 1.6
2017-Aug-10 07:08N 40°37' E 014°19'213.6
2017-Aug-10 06:58N 40°38' E 014°23'11 0.8
2017-Aug-09 15:52N 40°49' E 014°18'2 6.3
2017-Aug-09 15:30N 40°50' E 014°16'1019.0
2017-Aug-09 14:59N 40°40' E 014°16'6 2.8
2017-Aug-09 12:51N 40°34' E 014°16'617.2
2017-Aug-09 12:30N 40°38' E 014°23'5 2.0
2017-Aug-09 10:13N 40°38' E 014°17'1023.6
2017-Aug-09 09:47N 40°49' E 014°17'1 1.5
2017-Aug-09 09:17N 40°49' E 014°17'12 9.1
2017-Aug-09 07:57N 40°37' E 014°19'3 5.7
2017-Aug-09 07:30N 40°38' E 014°23'6 8.6
2017-Aug-09 06:50N 40°35' E 014°16'617.5
2017-Aug-09 06:30N 40°38' E 014°23'2 0.1
2017-Aug-08 16:38N 40°40' E 014°24'214.0
2017-Aug-08 16:29N 40°38' E 014°23'  
Track history (hours):
 
Tides and Currents Weather Stations Pressure Air Temp Water Temp Dewpoint Dewpoint Depression Visibility Wind Speed Wind Dir Waves Ship Positions

Ischia Jet

Last reported at 2017-Aug-18 16:29 UTC. Time now 2017-Aug-18 20:22 UTC.
Position N 40°40' E 014°24'.

Length 42 m; draft 1.2 m.

Type: Passenger vessel. MMSI: 247048700.

Date/timePositionNaut miles runAvg speedWind from/ knotsBaromVisibWave heightAir tempDewpointWater temp
2017-Aug-18 16:29N 40°40' E 014°24'9 9.4
2017-Aug-18 15:34N 40°34' E 014°16'124.1
2017-Aug-18 15:30N 40°34' E 014°18'1422.4
2017-Aug-18 14:52N 40°38' E 014°36'1415.8
2017-Aug-18 14:01N 40°34' E 014°19'3 4.6
2017-Aug-18 13:26N 40°35' E 014°16'1024.5
2017-Aug-18 13:00N 40°46' E 014°17'5 9.4
2017-Aug-18 12:30N 40°50' E 014°15'1020.6
2017-Aug-18 12:00N 40°40' E 014°16'713.0
2017-Aug-18 11:30N 40°33' E 014°14'0 0.0
2017-Aug-18 11:00N 40°33' E 014°14'0 0.0
2017-Aug-18 09:32N 40°33' E 014°14'0 5.3
2017-Aug-18 09:28N 40°34' E 014°15'1022.0
2017-Aug-18 09:00N 40°36' E 014°28'1 1.3
2017-Aug-18 08:03N 40°35' E 014°28'124.8
2017-Aug-18 08:01N 40°35' E 014°27'811.4
2017-Aug-18 07:19N 40°34' E 014°16'619.1
2017-Aug-18 07:00N 40°38' E 014°23'3 0.2
2017-Aug-17 14:51N 40°40' E 014°24'3 8.1
2017-Aug-17 14:31N 40°38' E 014°21'7 2.4
2017-Aug-17 11:27N 40°33' E 014°14'0 0.0
2017-Aug-17 11:00N 40°33' E 014°14'714.0
2017-Aug-17 10:31N 40°40' E 014°17'1020.1
2017-Aug-17 10:00N 40°50' E 014°15'1 1.0
2017-Aug-17 09:25N 40°50' E 014°16'922.1
2017-Aug-17 09:00N 40°41' E 014°16'7 7.1
2017-Aug-17 08:03N 40°34' E 014°16'122.0
2017-Aug-17 08:00N 40°35' E 014°17'5 9.7
2017-Aug-17 07:30N 40°38' E 014°23'4 5.1
2017-Aug-17 06:46N 40°36' E 014°18'414.8
2017-Aug-17 06:30N 40°38' E 014°23'3 0.2
2017-Aug-16 16:36N 40°40' E 014°24'223.7
2017-Aug-16 16:31N 40°38' E 014°23'7 7.2
2017-Aug-16 15:36N 40°34' E 014°16'223.9
2017-Aug-16 15:30N 40°34' E 014°20'8 8.0
2017-Aug-16 14:28N 40°38' E 014°29'714.6
2017-Aug-16 13:59N 40°34' E 014°21'4 7.9
2017-Aug-16 13:26N 40°35' E 014°16'1513.9
2017-Aug-16 12:22N 40°50' E 014°15'0 0.0
2017-Aug-16 12:00N 40°50' E 014°15'5 7.0
2017-Aug-16 11:15N 40°45' E 014°18'623.8
2017-Aug-16 11:00N 40°39' E 014°17'7 4.1
2017-Aug-16 09:23N 40°34' E 014°22'4 3.4
2017-Aug-16 08:05N 40°35' E 014°28'224.2
2017-Aug-16 08:00N 40°34' E 014°25'815.4
2017-Aug-16 07:28N 40°33' E 014°14'816.6
2017-Aug-16 07:00N 40°38' E 014°23'3 0.2
2017-Aug-15 14:54N 40°41' E 014°25'4 9.9
2017-Aug-15 14:31N 40°38' E 014°21'7 2.9
2017-Aug-15 12:09N 40°33' E 014°14'0 0.0
2017-Aug-15 12:00N 40°33' E 014°14'2 1.8
2017-Aug-15 10:45N 40°35' E 014°16'623.9
2017-Aug-15 10:31N 40°41' E 014°17'5 4.0
2017-Aug-15 09:11N 40°46' E 014°18'425.0
2017-Aug-15 09:00N 40°42' E 014°17'6 5.5
2017-Aug-15 07:55N 40°36' E 014°18'4 9.9
2017-Aug-15 07:31N 40°38' E 014°23'4 5.5
2017-Aug-15 06:45N 40°36' E 014°18'416.8
2017-Aug-15 06:30N 40°38' E 014°23'4 0.3
2017-Aug-14 16:51N 40°41' E 014°26'411.1
2017-Aug-14 16:31N 40°38' E 014°23'4 3.9
2017-Aug-14 15:29N 40°34' E 014°25'3 2.8
2017-Aug-14 14:16N 40°37' E 014°29'1011.4
2017-Aug-14 13:25N 40°35' E 014°16'1024.1
2017-Aug-14 13:00N 40°45' E 014°17'1 0.4
2017-Aug-14 11:15N 40°46' E 014°18'623.7
2017-Aug-14 11:00N 40°40' E 014°17'7 4.0
2017-Aug-14 09:20N 40°34' E 014°22'5 3.7
2017-Aug-14 08:07N 40°35' E 014°28'324.9
2017-Aug-14 07:59N 40°34' E 014°23'5 6.8
2017-Aug-14 07:16N 40°36' E 014°17'417.0
2017-Aug-14 07:00N 40°38' E 014°23'2 0.2
2017-Aug-13 14:51N 40°40' E 014°24'2 7.2
2017-Aug-13 14:30N 40°38' E 014°22'6 1.6
2017-Aug-13 10:42N 40°35' E 014°15'422.4
2017-Aug-13 10:30N 40°40' E 014°15'7 5.3
2017-Aug-13 09:13N 40°46' E 014°17'524.3
2017-Aug-13 09:00N 40°41' E 014°17'5 5.5
2017-Aug-13 08:02N 40°36' E 014°17'123.2
2017-Aug-13 08:00N 40°36' E 014°18'3 6.1
2017-Aug-13 07:31N 40°38' E 014°21'2 0.2
2017-Aug-12 16:37N 40°39' E 014°24'2 7.1
2017-Aug-12 16:22N 40°38' E 014°23'13 2.8
2017-Aug-12 11:34N 40°50' E 014°16'115.8
2017-Aug-12 11:30N 40°49' E 014°17'1122.6
2017-Aug-12 11:00N 40°38' E 014°18'1 0.2
2017-Aug-12 07:15N 40°38' E 014°18'312.6
2017-Aug-12 06:58N 40°38' E 014°23'2 0.1
2017-Aug-11 14:37N 40°39' E 014°24'217.7
2017-Aug-11 14:30N 40°38' E 014°23'4 0.8
2017-Aug-11 08:55N 40°38' E 014°17'1 1.7
2017-Aug-11 08:10N 40°38' E 014°19'317.2
2017-Aug-11 08:00N 40°38' E 014°22'3 2.4
2017-Aug-11 06:46N 40°38' E 014°18'312.5
2017-Aug-11 06:30N 40°38' E 014°23'2 0.1
2017-Aug-10 16:32N 40°40' E 014°24'125.0
2017-Aug-10 16:30N 40°39' E 014°23'5 2.1
2017-Aug-10 14:11N 40°35' E 014°25'424.6
2017-Aug-10 14:00N 40°34' E 014°20'4 2.8
2017-Aug-10 12:38N 40°38' E 014°20'216.9
2017-Aug-10 12:31N 40°38' E 014°23'8 4.4
2017-Aug-10 10:46N 40°33' E 014°14'0 0.0
2017-Aug-10 10:30N 40°33' E 014°14'6 1.6
2017-Aug-10 07:08N 40°37' E 014°19'213.6
2017-Aug-10 06:58N 40°38' E 014°23'11 0.8
2017-Aug-09 15:52N 40°49' E 014°18'2 6.3
2017-Aug-09 15:30N 40°50' E 014°16'1019.0
2017-Aug-09 14:59N 40°40' E 014°16'6 2.8
2017-Aug-09 12:51N 40°34' E 014°16'617.2
2017-Aug-09 12:30N 40°38' E 014°23'5 2.0
2017-Aug-09 10:13N 40°38' E 014°17'1023.6
2017-Aug-09 09:47N 40°49' E 014°17'1 1.5
2017-Aug-09 09:17N 40°49' E 014°17'12 9.1
2017-Aug-09 07:57N 40°37' E 014°19'3 5.7
2017-Aug-09 07:30N 40°38' E 014°23'6 8.6
2017-Aug-09 06:50N 40°35' E 014°16'617.5
2017-Aug-09 06:30N 40°38' E 014°23'2 0.1
2017-Aug-08 16:38N 40°40' E 014°24'214.0
2017-Aug-08 16:29N 40°38' E 014°23'  

Dump ship's entire track history